Etusivu
METAR-TAF:

METAR-TAF

Lentoasemat :

Torino, Italia

Leveyspiiri: 45-05-20N, Pituuspiiri: 007-36-20E, korkeus merenpinnasta: 288 m

Tämänhetkinen sää

Tämä raportti tehtiin 12 tuntia ja 36 minuuttia sitten, kello 15.50 UTC
tyyntä
Lämpötila 16°C
Kosteus 18%
Ilmanpaine 1013 hPa
Näkyvyys 10 km tai enemmän
ei pilviä alle 1500 m:ssä eikä cumulonimbus-pilviä

METAR: LIMA 181550Z 00000KT CAVOK 16/M08 Q1013

Aika: 05:26 (04:26 UTC)


TAF: puuttuu

Säähavainnot ja -ennusteet yli 4000 lentoasemalta (METAR- ja TAF-raportit).

Käytössä olevat sääasemat on merkitty karttaan keltaisilla ja punaisilla pisteillä.

Aseta hiiri pisteen päälle nähdäksesi sääaseman nimen.

Klikkaa sitten nähdäksesi säähavainnot ja -ennusteet.

Kartan vaihtaminen: klikkaa mustalla rastilla varustettuja vihreitä pisteitä, niin voit zoomata sisään; viivalla varustettua vihreää pistettä, niin voit zoomata ulos tai vihreitä nuolia, niin pääset viereisille kartoille.


METAR-TAF: